Time;durP1;ratioP1;P1;durP2;ratioP2;P2;SDS_P1;SDS_P2;PMS_P1;PMS_P2;Temp;Humidity;BMP_temperature;BMP_pressure;BME280_temperature;BME280_humidity;BME280_pressure;Samples;Min_cycle;Max_cycle;Signal;HPM_P1;HPM_P2
2023/01/28 00:02:11;;;;;;;7.68;4.25;;;;;;;;;;10501251;28;20039;-78
2023/01/28 00:07:12;;;;;;;6.25;4.30;;;;;;;;;;10455039;28;20045;-75
2023/01/28 00:12:12;;;;;;;7.43;4.72;;;;;;;;;;10496504;28;20311;-79
2023/01/28 00:17:15;;;;;;;7.10;4.70;;;;;;;;;;10502466;28;20044;-79
2023/01/28 00:22:17;;;;;;;9.25;5.50;;;;;;;;;;10500755;28;20025;-80
2023/01/28 00:27:17;;;;;;;8.75;5.40;;;;;;;;;;10509098;28;20045;-77
2023/01/28 00:32:18;;;;;;;8.85;5.13;;;;;;;;;;10474399;28;20031;-78
2023/01/28 00:37:18;;;;;;;8.48;6.10;;;;;;;;;;10471692;28;20040;-81
2023/01/28 00:42:18;;;;;;;8.50;4.83;;;;;;;;;;10459785;28;20459;-79
2023/01/28 00:47:20;;;;;;;9.57;5.78;;;;;;;;;;10451284;28;20793;-79
2023/01/28 00:52:20;;;;;;;9.13;6.22;;;;;;;;;;10473673;28;20056;-78
2023/01/28 00:57:21;;;;;;;8.98;6.00;;;;;;;;;;10473011;28;20145;-78
2023/01/28 01:02:23;;;;;;;11.13;6.32;;;;;;;;;;10477379;28;20115;-77
2023/01/28 01:07:43;;;;;;;8.82;5.57;;;;;;;;;;10477512;28;20055;-79
2023/01/28 01:12:45;;;;;;;11.00;6.22;;;;;;;;;;10485290;28;20036;-79
2023/01/28 01:17:47;;;;;;;10.17;6.67;;;;;;;;;;10475908;28;20058;-79
2023/01/28 01:22:47;;;;;;;10.35;6.57;;;;;;;;;;10471865;28;20434;-79
2023/01/28 01:27:49;;;;;;;11.75;6.35;;;;;;;;;;10469345;28;20175;-84
2023/01/28 01:32:51;;;;;;;10.63;7.20;;;;;;;;;;10467930;28;20489;-81
2023/01/28 01:37:52;;;;;;;12.43;7.22;;;;;;;;;;10479001;28;20037;-79
2023/01/28 01:42:54;;;;;;;14.10;7.97;;;;;;;;;;10492331;28;20122;-80
2023/01/28 01:47:56;;;;;;;;;;;;;;;;;;10471060;28;20119;-77
2023/01/28 01:53:00;;;;;;;12.13;7.10;;;;;;;;;;10466330;28;20361;-79
2023/01/28 01:58:03;;;;;;;13.25;7.15;;;;;;;;;;10484135;28;20285;-81
2023/01/28 02:03:06;;;;;;;16.50;7.70;;;;;;;;;;10471995;28;20035;-79
2023/01/28 02:08:21;;;;;;;14.33;8.63;;;;;;;;;;10470255;28;20040;-79
2023/01/28 02:13:26;;;;;;;17.58;9.73;;;;;;;;;;10473395;28;20037;-79
2023/01/28 02:18:26;;;;;;;16.73;8.98;;;;;;;;;;10479933;28;20044;-78
2023/01/28 02:23:45;;;;;;;15.07;8.98;;;;;;;;;;10484690;28;20511;-77
2023/01/28 02:28:46;;;;;;;14.35;8.43;;;;;;;;;;10513190;28;20361;-78
2023/01/28 02:33:55;;;;;;;18.77;9.43;;;;;;;;;;10519846;28;20043;-78
2023/01/28 02:38:58;;;;;;;15.43;8.85;;;;;;;;;;10488741;28;20059;-79
2023/01/28 02:44:01;;;;;;;16.27;8.48;;;;;;;;;;10498895;28;20040;-78
2023/01/28 02:49:04;;;;;;;17.77;9.47;;;;;;;;;;10501580;28;20056;-78
2023/01/28 02:54:13;;;;;;;18.17;9.07;;;;;;;;;;10461100;28;20039;-75
2023/01/28 02:59:30;;;;;;;17.42;8.98;;;;;;;;;;10478434;28;20063;-75
2023/01/28 03:04:43;;;;;;;14.98;8.20;;;;;;;;;;10477852;28;20086;-76
2023/01/28 03:09:45;;;;;;;15.73;8.27;;;;;;;;;;10492714;22;20149;-80
2023/01/28 03:41:39;;;;;;;19.35;10.23;;;;;;;;;;10443237;28;20099;-84
2023/01/28 03:46:41;;;;;;;17.38;9.32;;;;;;;;;;10418818;28;20166;-78
2023/01/28 03:51:42;;;;;;;17.63;9.30;;;;;;;;;;10420841;28;20044;-78
2023/01/28 03:56:43;;;;;;;19.80;9.73;;;;;;;;;;10424507;28;20645;-78
2023/01/28 04:01:44;;;;;;;21.65;9.82;;;;;;;;;;10411402;28;20215;-77
2023/01/28 04:06:44;;;;;;;19.63;9.43;;;;;;;;;;10424516;28;20041;-77
2023/01/28 04:12:08;;;;;;;19.15;9.80;;;;;;;;;;10433446;28;20507;-77
2023/01/28 04:17:14;;;;;;;19.77;10.57;;;;;;;;;;10430488;28;20512;-80
2023/01/28 04:22:16;;;;;;;21.23;9.65;;;;;;;;;;10421805;28;20120;-78
2023/01/28 04:27:18;;;;;;;18.25;10.23;;;;;;;;;;10431443;28;20064;-78
2023/01/28 04:32:18;;;;;;;20.63;11.27;;;;;;;;;;10438976;28;20065;-78
2023/01/28 04:37:36;;;;;;;21.17;10.93;;;;;;;;;;10436633;28;20492;-79
2023/01/28 04:42:51;;;;;;;23.13;10.90;;;;;;;;;;10423159;28;20029;-80
2023/01/28 04:48:02;;;;;;;22.35;11.02;;;;;;;;;;10399868;28;20049;-77
2023/01/28 04:53:25;;;;;;;22.77;10.77;;;;;;;;;;10416087;28;20037;-77
2023/01/28 04:58:35;;;;;;;22.42;10.43;;;;;;;;;;10431574;28;20741;-76
2023/01/28 05:03:40;;;;;;;20.65;11.15;;;;;;;;;;10438304;28;20365;-79
2023/01/28 05:08:41;;;;;;;22.58;10.50;;;;;;;;;;10457679;28;20045;-78
2023/01/28 05:13:41;;;;;;;21.95;11.57;;;;;;;;;;10444055;28;20037;-76
2023/01/28 05:18:50;;;;;;;21.65;10.85;;;;;;;;;;10453638;28;20037;-82
2023/01/28 05:23:52;;;;;;;24.83;10.88;;;;;;;;;;10437065;28;20055;-82
2023/01/28 05:28:53;;;;;;;21.45;10.60;;;;;;;;;;10423695;28;20075;-80
2023/01/28 05:33:54;;;;;;;23.30;11.45;;;;;;;;;;10430695;28;20768;-77
2023/01/28 05:38:56;;;;;;;23.43;10.97;;;;;;;;;;10475674;28;20069;-77
2023/01/28 05:43:56;;;;;;;20.08;9.95;;;;;;;;;;10438035;28;20381;-78
2023/01/28 05:49:11;;;;;;;20.13;10.30;;;;;;;;;;10433370;28;20409;-79
2023/01/28 05:54:43;;;;;;;19.77;9.07;;;;;;;;;;10413969;28;20037;-78
2023/01/28 05:59:47;;;;;;;21.83;10.27;;;;;;;;;;10435918;28;20373;-81
2023/01/28 06:04:49;;;;;;;21.23;10.40;;;;;;;;;;10483875;28;20199;-77
2023/01/28 06:09:50;;;;;;;21.52;11.10;;;;;;;;;;10461845;28;20060;-76
2023/01/28 06:14:53;;;;;;;20.88;9.82;;;;;;;;;;10452470;28;20514;-77
2023/01/28 06:20:11;;;;;;;19.58;9.15;;;;;;;;;;10479004;28;20104;-78
2023/01/28 06:25:13;;;;;;;18.75;9.35;;;;;;;;;;10484788;28;20045;-76
2023/01/28 06:30:15;;;;;;;18.83;9.45;;;;;;;;;;10467839;28;20055;-77
2023/01/28 06:35:16;;;;;;;19.55;9.68;;;;;;;;;;10459969;28;20041;-78
2023/01/28 06:40:16;;;;;;;18.60;10.13;;;;;;;;;;10467721;28;20075;-78
2023/01/28 06:45:17;;;;;;;20.50;9.85;;;;;;;;;;10477006;28;20090;-80
2023/01/28 06:50:17;;;;;;;19.05;9.60;;;;;;;;;;10433353;28;20438;-80
2023/01/28 06:55:18;;;;;;;17.77;8.60;;;;;;;;;;10437502;28;20044;-79
2023/01/28 07:00:18;;;;;;;16.42;8.63;;;;;;;;;;10428436;28;20048;-77
2023/01/28 07:05:21;;;;;;;17.60;8.82;;;;;;;;;;10450771;28;20127;-78
2023/01/28 07:10:22;;;;;;;18.05;9.10;;;;;;;;;;10437421;28;20120;-77
2023/01/28 07:15:22;;;;;;;15.98;8.77;;;;;;;;;;10460344;28;20064;-76
2023/01/28 07:20:22;;;;;;;15.35;8.55;;;;;;;;;;10483896;28;20043;-76
2023/01/28 07:25:23;;;;;;;16.10;8.40;;;;;;;;;;10492370;28;20076;-75
2023/01/28 07:30:23;;;;;;;18.00;8.23;;;;;;;;;;10498231;28;20070;-75
2023/01/28 07:35:24;;;;;;;17.42;8.45;;;;;;;;;;10449752;28;20032;-77
2023/01/28 07:40:25;;;;;;;18.05;7.82;;;;;;;;;;10456845;28;20041;-75
2023/01/28 07:45:27;;;;;;;15.60;7.45;;;;;;;;;;10455621;28;20029;-75
2023/01/28 07:50:28;;;;;;;12.80;7.40;;;;;;;;;;10453549;28;20392;-74
2023/01/28 07:55:29;;;;;;;13.38;6.90;;;;;;;;;;10453370;28;20107;-76
2023/01/28 08:00:30;;;;;;;13.85;6.82;;;;;;;;;;10434822;28;20064;-75
2023/01/28 08:05:40;;;;;;;12.80;6.05;;;;;;;;;;10456986;28;20041;-77
2023/01/28 08:10:41;;;;;;;9.63;5.43;;;;;;;;;;10456187;28;20449;-77
2023/01/28 08:15:42;;;;;;;7.45;4.60;;;;;;;;;;10433048;28;20110;-77
2023/01/28 08:20:43;;;;;;;7.05;4.38;;;;;;;;;;10452461;28;20534;-79
2023/01/28 08:25:44;;;;;;;7.05;3.88;;;;;;;;;;10447029;28;20486;-77
2023/01/28 08:30:45;;;;;;;5.50;4.18;;;;;;;;;;10468760;28;20178;-81
2023/01/28 08:35:45;;;;;;;4.65;3.30;;;;;;;;;;10496687;28;20024;-77
2023/01/28 08:40:46;;;;;;;5.00;3.10;;;;;;;;;;10471308;28;20203;-75
2023/01/28 08:45:47;;;;;;;4.13;3.00;;;;;;;;;;10440240;28;20131;-74
2023/01/28 08:50:49;;;;;;;6.15;3.88;;;;;;;;;;10455005;28;20037;-78
2023/01/28 08:55:52;;;;;;;3.53;2.80;;;;;;;;;;10455306;28;20083;-80
2023/01/28 09:00:57;;;;;;;3.83;2.50;;;;;;;;;;10460621;28;20037;-76
2023/01/28 09:06:01;;;;;;;4.45;2.95;;;;;;;;;;10462328;28;20052;-77
2023/01/28 09:11:03;;;;;;;5.20;3.08;;;;;;;;;;10486591;28;20045;-81
2023/01/28 09:16:05;;;;;;;4.18;2.83;;;;;;;;;;10477556;28;20079;-78
2023/01/28 09:21:06;;;;;;;3.92;2.90;;;;;;;;;;10450678;28;20064;-82
2023/01/28 09:26:08;;;;;;;4.82;2.80;;;;;;;;;;10449049;28;20114;-77
2023/01/28 09:31:10;;;;;;;3.70;2.78;;;;;;;;;;10448703;28;20072;-75
2023/01/28 09:36:12;;;;;;;2.88;2.60;;;;;;;;;;10436681;28;20064;-77
2023/01/28 09:46:26;;;;;;;2.25;2.05;;;;;;;;;;10468770;28;20443;-78
2023/01/28 09:51:40;;;;;;;3.97;2.17;;;;;;;;;;10479425;28;20048;-79
2023/01/28 09:56:45;;;;;;;3.55;2.90;;;;;;;;;;10485091;28;20033;-79
2023/01/28 10:01:45;;;;;;;3.03;2.25;;;;;;;;;;10475060;28;20759;-77
2023/01/28 10:06:53;;;;;;;3.13;1.98;;;;;;;;;;10446713;28;20124;-81
2023/01/28 10:12:12;;;;;;;2.28;2.08;;;;;;;;;;10463697;28;20041;-80
2023/01/28 10:17:19;;;;;;;2.40;2.13;;;;;;;;;;10486246;28;20045;-77
2023/01/28 10:23:02;;;;;;;2.95;1.95;;;;;;;;;;10481208;28;20044;-77
2023/01/28 10:28:09;;;;;;;2.60;2.28;;;;;;;;;;10493142;28;20049;-77
2023/01/28 10:33:15;;;;;;;2.88;1.80;;;;;;;;;;10462678;28;20043;-79
2023/01/28 10:38:19;;;;;;;3.50;2.30;;;;;;;;;;10484414;28;20121;-76
2023/01/28 10:43:22;;;;;;;3.53;2.25;;;;;;;;;;10452063;28;20057;-76
2023/01/28 10:48:25;;;;;;;2.30;2.00;;;;;;;;;;10486185;28;20062;-75
2023/01/28 10:53:39;;;;;;;4.60;2.53;;;;;;;;;;10462851;28;20071;-75
2023/01/28 10:59:06;;;;;;;3.15;2.00;;;;;;;;;;10469589;28;20048;-74
2023/01/28 11:04:13;;;;;;;4.13;2.65;;;;;;;;;;10447925;28;20145;-78
2023/01/28 11:09:23;;;;;;;3.17;2.17;;;;;;;;;;10442455;28;20045;-77
2023/01/28 11:14:28;;;;;;;3.90;2.50;;;;;;;;;;10436319;28;20040;-79
2023/01/28 11:19:37;;;;;;;2.45;2.20;;;;;;;;;;10435738;28;20040;-78
2023/01/28 11:29:52;;;;;;;4.90;2.87;;;;;;;;;;10434887;28;20080;-80
2023/01/28 11:34:56;;;;;;;2.92;2.45;;;;;;;;;;10433712;28;20037;-76
2023/01/28 11:40:19;;;;;;;3.92;3.22;;;;;;;;;;10436770;28;20144;-76
2023/01/28 11:45:28;;;;;;;4.67;3.20;;;;;;;;;;10437176;28;20043;-80
2023/01/28 11:50:40;;;;;;;5.75;2.90;;;;;;;;;;10480310;28;20044;-76
2023/01/28 11:56:00;;;;;;;5.00;3.10;;;;;;;;;;10422110;28;20080;-75
2023/01/28 12:01:07;;;;;;;3.88;2.92;;;;;;;;;;10369402;28;20046;-78
2023/01/28 12:06:13;;;;;;;5.00;3.42;;;;;;;;;;10388328;28;20068;-75
2023/01/28 12:12:10;;;;;;;3.83;2.90;;;;;;;;;;10386634;28;20033;-75
2023/01/28 12:16:55;;;;;;;5.07;2.90;;;;;;;;;;10395177;28;20877;-76
2023/01/28 12:22:05;;;;;;;3.42;3.10;;;;;;;;;;10431457;28;20058;-78
2023/01/28 12:27:25;;;;;;;3.58;2.97;;;;;;;;;;10430444;28;20185;-77
2023/01/28 12:32:37;;;;;;;3.53;2.65;;;;;;;;;;10396562;28;20554;-75
2023/01/28 12:37:38;;;;;;;3.38;2.92;;;;;;;;;;10434053;28;20155;-76
2023/01/28 12:42:44;;;;;;;5.60;3.37;;;;;;;;;;10427376;28;20048;-76
2023/01/28 12:47:49;;;;;;;9.07;4.60;;;;;;;;;;10429164;28;20315;-77
2023/01/28 12:52:57;;;;;;;6.75;4.40;;;;;;;;;;10434350;28;20036;-75
2023/01/28 12:57:57;;;;;;;5.03;3.35;;;;;;;;;;10434204;28;20049;-76
2023/01/28 13:03:10;;;;;;;5.25;3.40;;;;;;;;;;10419702;28;20712;-77
2023/01/28 13:08:21;;;;;;;3.92;3.45;;;;;;;;;;10405869;28;20114;-77
2023/01/28 13:13:33;;;;;;;4.22;3.33;;;;;;;;;;10429107;28;20741;-76
2023/01/28 13:18:41;;;;;;;4.03;3.53;;;;;;;;;;10410998;28;20076;-79
2023/01/28 13:23:47;;;;;;;3.95;3.55;;;;;;;;;;10430895;28;20171;-77
2023/01/28 13:28:51;;;;;;;4.53;3.33;;;;;;;;;;10427677;28;20064;-77
2023/01/28 13:33:54;;;;;;;4.13;3.22;;;;;;;;;;10417748;28;20044;-78
2023/01/28 13:38:55;;;;;;;;;;;;;;;;;;10417312;28;20053;-78
2023/01/28 13:43:57;;;;;;;3.75;3.20;;;;;;;;;;10434557;28;19917;-79
2023/01/28 13:48:58;;;;;;;3.70;3.05;;;;;;;;;;10430069;28;20041;-76
2023/01/28 13:54:01;;;;;;;7.43;3.90;;;;;;;;;;10428127;28;20515;-78
2023/01/28 13:59:12;;;;;;;8.07;4.68;;;;;;;;;;10437582;28;20029;-76
2023/01/28 14:04:14;;;;;;;5.20;3.38;;;;;;;;;;10417755;28;20068;-76
2023/01/28 14:09:29;;;;;;;4.63;3.65;;;;;;;;;;10432184;28;20055;-77
2023/01/28 14:14:42;;;;;;;4.50;3.08;;;;;;;;;;10414543;28;20083;-78
2023/01/28 14:19:43;;;;;;;6.20;3.95;;;;;;;;;;10435122;28;20045;-77
2023/01/28 14:24:44;;;;;;;7.82;4.68;;;;;;;;;;10402566;28;20033;-80
2023/01/28 14:29:44;;;;;;;6.20;4.60;;;;;;;;;;10400764;28;20064;-79
2023/01/28 14:34:45;;;;;;;5.67;4.43;;;;;;;;;;10435555;28;20040;-81
2023/01/28 14:39:55;;;;;;;6.47;3.90;;;;;;;;;;10409541;28;20291;-78
2023/01/28 14:45:15;;;;;;;5.32;4.70;;;;;;;;;;10431851;28;20037;-78
2023/01/28 14:50:22;;;;;;;6.63;5.13;;;;;;;;;;10429849;28;20057;-80
2023/01/28 14:55:33;;;;;;;8.65;5.90;;;;;;;;;;10432127;28;20478;-77
2023/01/28 15:00:34;;;;;;;6.78;4.32;;;;;;;;;;10438975;28;20037;-79
2023/01/28 15:05:34;;;;;;;5.10;4.22;;;;;;;;;;10437899;28;20099;-76
2023/01/28 15:10:36;;;;;;;6.78;4.50;;;;;;;;;;10425971;28;20040;-77
2023/01/28 15:15:38;;;;;;;5.57;4.55;;;;;;;;;;10432493;28;20036;-76
2023/01/28 15:20:42;;;;;;;7.30;4.03;;;;;;;;;;10429897;28;20037;-76
2023/01/28 15:25:43;;;;;;;8.88;4.35;;;;;;;;;;10431795;28;20037;-76
2023/01/28 15:30:46;;;;;;;5.05;4.03;;;;;;;;;;10424138;28;20037;-77
2023/01/28 15:35:50;;;;;;;5.30;4.25;;;;;;;;;;10421976;28;20128;-79
2023/01/28 15:40:56;;;;;;;8.43;4.22;;;;;;;;;;10417046;28;20054;-77
2023/01/28 15:45:57;;;;;;;5.22;3.58;;;;;;;;;;10440155;28;20044;-78
2023/01/28 15:51:03;;;;;;;5.68;3.78;;;;;;;;;;10429226;28;20158;-79
2023/01/28 15:56:07;;;;;;;6.22;4.57;;;;;;;;;;10413023;28;20549;-84
2023/01/28 16:01:08;;;;;;;8.45;5.07;;;;;;;;;;10444335;28;20048;-78
2023/01/28 16:06:14;;;;;;;7.45;5.45;;;;;;;;;;10450772;28;20049;-76
2023/01/28 16:11:26;;;;;;;7.10;4.90;;;;;;;;;;10447596;28;20472;-79
2023/01/28 16:16:27;;;;;;;7.25;4.75;;;;;;;;;;10462460;28;20033;-76
2023/01/28 16:21:33;;;;;;;6.33;4.57;;;;;;;;;;10440840;28;20041;-76
2023/01/28 16:26:34;;;;;;;7.97;5.05;;;;;;;;;;10427878;28;20041;-73
2023/01/28 16:31:35;;;;;;;8.18;5.95;;;;;;;;;;10407744;28;20057;-77
2023/01/28 16:36:35;;;;;;;9.45;5.40;;;;;;;;;;10396542;28;20041;-77
2023/01/28 16:41:41;;;;;;;5.50;4.95;;;;;;;;;;10430355;28;20466;-73
2023/01/28 16:46:41;;;;;;;8.07;5.18;;;;;;;;;;10433741;28;20064;-79
2023/01/28 16:51:45;;;;;;;10.95;6.97;;;;;;;;;;10404317;28;20040;-75
2023/01/28 16:56:45;;;;;;;7.95;5.43;;;;;;;;;;10418895;28;20544;-78
2023/01/28 17:01:46;;;;;;;7.35;4.90;;;;;;;;;;10424850;28;20042;-79
2023/01/28 17:06:46;;;;;;;6.90;5.25;;;;;;;;;;10402048;28;20045;-78
2023/01/28 17:11:47;;;;;;;6.05;4.90;;;;;;;;;;10430822;28;20036;-74
2023/01/28 17:16:47;;;;;;;5.75;4.43;;;;;;;;;;10435367;28;20042;-75
2023/01/28 17:21:48;;;;;;;7.07;5.80;;;;;;;;;;10422930;28;20470;-77
2023/01/28 17:26:52;;;;;;;5.63;4.30;;;;;;;;;;10420936;28;20103;-75
2023/01/28 17:31:52;;;;;;;5.82;4.65;;;;;;;;;;10435305;28;20049;-77
2023/01/28 17:36:52;;;;;;;6.63;5.10;;;;;;;;;;10406055;28;20132;-75
2023/01/28 17:41:55;;;;;;;6.53;5.40;;;;;;;;;;10429289;28;20125;-75
2023/01/28 17:46:55;;;;;;;7.15;5.32;;;;;;;;;;10427589;28;20457;-77
2023/01/28 17:51:57;;;;;;;6.55;4.75;;;;;;;;;;10432612;28;20059;-77
2023/01/28 17:56:58;;;;;;;6.97;5.38;;;;;;;;;;10428944;28;20455;-77
2023/01/28 18:01:59;;;;;;;6.03;5.43;;;;;;;;;;10432623;28;20049;-77
2023/01/28 18:07:00;;;;;;;10.23;5.70;;;;;;;;;;10413069;28;20056;-76
2023/01/28 18:12:00;;;;;;;7.65;5.45;;;;;;;;;;10420054;28;20033;-77
2023/01/28 18:17:04;;;;;;;5.35;4.70;;;;;;;;;;10426726;28;20033;-78
2023/01/28 18:22:04;;;;;;;7.20;5.25;;;;;;;;;;10421738;28;20738;-78
2023/01/28 18:27:05;;;;;;;5.97;4.80;;;;;;;;;;10430102;28;20053;-78
2023/01/28 18:32:05;;;;;;;9.32;5.72;;;;;;;;;;10438802;28;20451;-78
2023/01/28 18:37:07;;;;;;;9.77;5.88;;;;;;;;;;10431464;28;20030;-78
2023/01/28 18:42:07;;;;;;;7.53;5.57;;;;;;;;;;10431700;28;20047;-74
2023/01/28 18:47:08;;;;;;;11.85;6.68;;;;;;;;;;10413140;28;20060;-76
2023/01/28 18:52:08;;;;;;;8.13;5.00;;;;;;;;;;10401298;28;20775;-76
2023/01/28 18:57:09;;;;;;;7.90;6.10;;;;;;;;;;10419422;28;20053;-75
2023/01/28 19:02:12;;;;;;;7.80;5.68;;;;;;;;;;10421594;28;20477;-77
2023/01/28 19:07:12;;;;;;;8.53;6.30;;;;;;;;;;10427628;28;20057;-80
2023/01/28 19:12:12;;;;;;;10.20;6.50;;;;;;;;;;10419771;28;20656;-78
2023/01/28 19:17:13;;;;;;;8.07;5.85;;;;;;;;;;10416976;28;20094;-75
2023/01/28 19:22:13;;;;;;;8.07;5.38;;;;;;;;;;10416064;28;20033;-76
2023/01/28 19:27:14;;;;;;;8.98;5.40;;;;;;;;;;10418537;28;20061;-75
2023/01/28 19:32:17;;;;;;;7.10;5.07;;;;;;;;;;10423970;28;20041;-78
2023/01/28 19:37:18;;;;;;;8.48;4.75;;;;;;;;;;10421447;28;20905;-80
2023/01/28 19:42:18;;;;;;;5.63;4.25;;;;;;;;;;10434899;28;20041;-75
2023/01/28 19:47:20;;;;;;;6.13;5.25;;;;;;;;;;10423851;28;20636;-76
2023/01/28 19:52:21;;;;;;;13.20;7.07;;;;;;;;;;10426764;28;20045;-78
2023/01/28 19:57:22;;;;;;;11.90;6.65;;;;;;;;;;10430579;28;20040;-78
2023/01/28 20:02:22;;;;;;;9.88;7.10;;;;;;;;;;10429510;28;20032;-76
2023/01/28 20:07:24;;;;;;;8.80;5.47;;;;;;;;;;10429255;28;20144;-77
2023/01/28 20:12:25;;;;;;;8.90;6.35;;;;;;;;;;10424244;28;20500;-80
2023/01/28 20:17:27;;;;;;;7.68;5.40;;;;;;;;;;10402709;28;20045;-77
2023/01/28 20:22:27;;;;;;;8.07;5.57;;;;;;;;;;10412957;28;20045;-75
2023/01/28 20:27:28;;;;;;;8.15;5.88;;;;;;;;;;10429646;28;20492;-78
2023/01/28 20:32:28;;;;;;;8.63;5.80;;;;;;;;;;10421208;28;20029;-75
2023/01/28 20:37:28;;;;;;;8.13;6.10;;;;;;;;;;10402589;28;20413;-78
2023/01/28 20:42:29;;;;;;;7.90;5.20;;;;;;;;;;10429118;28;20584;-75
2023/01/28 20:47:29;;;;;;;8.25;5.57;;;;;;;;;;10431605;28;20098;-78
2023/01/28 20:52:31;;;;;;;7.82;5.90;;;;;;;;;;10425294;28;20037;-81
2023/01/28 20:57:31;;;;;;;6.65;5.22;;;;;;;;;;10426206;28;20040;-74
2023/01/28 21:02:34;;;;;;;7.70;5.70;;;;;;;;;;10408180;28;20511;-80
2023/01/28 21:07:34;;;;;;;6.90;5.35;;;;;;;;;;10435694;28;20752;-78
2023/01/28 21:12:35;;;;;;;6.80;5.07;;;;;;;;;;10423740;28;20045;-76
2023/01/28 21:17:36;;;;;;;7.60;5.13;;;;;;;;;;10419049;28;20037;-78
2023/01/28 21:22:37;;;;;;;7.22;5.38;;;;;;;;;;10420830;28;20488;-78
2023/01/28 21:27:37;;;;;;;8.55;5.70;;;;;;;;;;10426837;28;20052;-78
2023/01/28 21:32:38;;;;;;;8.30;6.00;;;;;;;;;;10413845;28;20133;-82
2023/01/28 21:37:38;;;;;;;8.25;6.22;;;;;;;;;;10414479;28;21303;-81
2023/01/28 21:42:39;;;;;;;8.15;5.88;;;;;;;;;;10363972;28;20045;-80
2023/01/28 21:47:39;;;;;;;9.40;6.22;;;;;;;;;;10386654;28;20053;-77
2023/01/28 21:52:39;;;;;;;6.57;5.70;;;;;;;;;;10376133;28;20609;-78
2023/01/28 21:57:40;;;;;;;8.40;6.32;;;;;;;;;;10385081;28;20346;-77
2023/01/28 22:02:40;;;;;;;7.88;6.22;;;;;;;;;;10374072;28;20033;-78
2023/01/28 22:07:42;;;;;;;8.00;5.97;;;;;;;;;;10375615;28;20521;-76
2023/01/28 22:12:42;;;;;;;8.13;6.55;;;;;;;;;;10385156;28;20037;-76
2023/01/28 22:17:43;;;;;;;8.15;6.50;;;;;;;;;;10388416;28;20062;-79
2023/01/28 22:22:43;;;;;;;8.75;6.43;;;;;;;;;;10384500;28;20045;-79
2023/01/28 22:27:43;;;;;;;9.25;6.28;;;;;;;;;;10378136;28;20056;-76
2023/01/28 22:32:44;;;;;;;9.93;7.55;;;;;;;;;;10396631;28;20037;-75
2023/01/28 22:37:44;;;;;;;8.32;6.20;;;;;;;;;;10389255;28;20118;-77
2023/01/28 22:42:45;;;;;;;9.60;6.38;;;;;;;;;;10362146;28;20045;-77
2023/01/28 22:47:46;;;;;;;9.75;6.93;;;;;;;;;;10393300;28;20176;-76
2023/01/28 22:52:47;;;;;;;9.35;6.47;;;;;;;;;;10387887;28;20042;-77
2023/01/28 22:57:48;;;;;;;8.63;6.40;;;;;;;;;;10397636;28;20071;-76
2023/01/28 23:02:48;;;;;;;9.93;6.15;;;;;;;;;;10386130;28;20053;-77
2023/01/28 23:07:49;;;;;;;9.20;6.30;;;;;;;;;;10450980;28;20049;-79
2023/01/28 23:12:53;;;;;;;7.45;5.97;;;;;;;;;;10448719;28;20041;-76
2023/01/28 23:28:35;;;;;;;7.95;6.15;;;;;;;;;;10388563;28;20057;-79
2023/01/28 23:33:35;;;;;;;6.72;5.70;;;;;;;;;;10378556;28;20047;-77
2023/01/28 23:38:36;;;;;;;5.78;5.15;;;;;;;;;;10393815;28;20034;-76
2023/01/28 23:43:37;;;;;;;7.68;5.93;;;;;;;;;;10413428;28;20067;-78
2023/01/28 23:48:38;;;;;;;7.07;6.35;;;;;;;;;;10399063;28;20057;-76
2023/01/28 23:53:40;;;;;;;8.07;5.90;;;;;;;;;;10419621;28;20041;-76
2023/01/28 23:58:40;;;;;;;13.32;7.65;;;;;;;;;;10428774;28;20041;-75
